Terminal Aerodrome Forecast
Issued by NWS Melbourne, FL

Home | Current Version | Previous Version | Text Only | Print | Product List | Glossary On
Versions: 1 2 3 4 5 6 7 8 9 10 11 12 13 14 15
000
FTUS42 KMLB 021735
TAFVRB
TAF
KVRB 021735Z 0218/0318 13010KT P6SM VCTS SCT040CB
     FM030000 15006KT P6SM FEW050 SCT120 BKN250
     FM030600 22003KT P6SM SCT250
     FM031400 21005KT P6SM SCT025 SCT250=

USA.gov is the U.S. government's official web portal to all federal, state and local government web resources and services.